Flight Track Log - Related Links

Times and Time Zones

All times are in EST time to prevent confusion due to time zone crossing. See the AMF1961 flight status page for this flight to view local times or setup timezone preferences in your user account.

Time Position Orientation Groundspeed Altitude Reporting Facility
EST Latitude Longitude Course Direction KTS MPH feet Rate Location/Type
Thu 08:56:38 PM 48.7333 -122.5333 197° South 150 173 2,300  Level Vancouver Center
Thu 08:57:38 PM 48.7000 -122.5667 213° Southwest 170 196 4,000 1,300 Climbing Vancouver Center
Thu 08:58:38 PM 48.6333 -122.5833 189° South 210 242 4,900 531 Climbing Vancouver Center
Thu 08:59:31 PM 48.5983 -122.5994 197° South 220 253 5,000 71 Climbing Seattle Center
Thu 09:00:00 PM 48.6704 -122.5142 194° South  Level Estimated
Thu 09:00:03 PM 48.5706 -122.6100 194° South 227 261 5,000  Level Seattle Center
Thu 09:00:32 PM 48.5308 -122.6319 200° South 253 291 5,000  Level Seattle Center
Thu 09:01:00 PM 48.6115 -122.5417 197° South  Level FlightAware Approximate
Thu 09:01:04 PM 48.5031 -122.6442 196° South 245 282 5,000  Level Seattle Center
Thu 09:01:32 PM 48.4625 -122.6614 196° South 256 295 5,000  Level Seattle Center
Thu 09:02:00 PM 48.5526 -122.5691 197° South  Level FlightAware Approximate
Thu 09:02:05 PM 48.4389 -122.6722 197° South 244 281 5,000  Level Seattle Center
Thu 09:02:33 PM 48.4011 -122.6833 191° South 238 274 5,000  Level Seattle Center
Thu 09:03:06 PM 48.3739 -122.6900 189° South 239 275 5,000  Level Seattle Center
Thu 09:03:33 PM 48.3364 -122.7003 190° South 231 266 5,000  Level Seattle Center
Thu 09:04:07 PM 48.2975 -122.7078 187° South 233 268 5,000  Level Seattle Center
Thu 09:04:34 PM 48.2728 -122.7136 189° South 233 268 5,000  Level Seattle Center
Thu 09:05:08 PM 48.2322 -122.7122 179° South 238 274 5,000  Level Seattle Center
Thu 09:05:32 PM 48.2069 -122.7061 171° South 242 278 5,000  Level Seattle Center
Thu 09:06:08 PM 48.1661 -122.6958 170° South 242 278 5,000  Level Seattle Center
Thu 09:06:09 PM 48.1672 -122.6981 307° West 244 281 5,000  Level Seattle Center
Thu 09:07:09 PM 48.0997 -122.6767 168° South 244 281 5,000  Level Seattle Center
Thu 09:07:10 PM 48.0958 -122.6778 191° South 242 278 5,000  Level Seattle Center
Thu 09:08:10 PM 48.0333 -122.6572 168° South 243 280 5,000  Level Seattle Center
Thu 09:08:11 PM 48.0289 -122.6583 189° South 245 282 5,000  Level Seattle Center
Thu 09:09:12 PM 47.9611 -122.6361 168° South 246 283 5,000 -496 Level Seattle Center
Thu 09:10:12 PM 47.8992 -122.6089 164° South 259 298 4,000 -1,240 Descending Seattle Center
Thu 09:11:13 PM 47.8417 -122.5686 155° Southeast 233 268 2,500 -942 Descending Seattle Center
Thu 09:12:13 PM 47.7931 -122.5269 150° Southeast 193 222 2,100 -393 Descending Seattle Center
Thu 09:12:14 PM 47.7894 -122.5261 171° South 185 213 2,100 97 Level Seattle Center
Thu 09:13:15 PM 47.7464 -122.4872 149° Southeast 172 198 2,200 -50 Climbing Seattle Center
Thu 09:14:15 PM 47.7047 -122.4497 149° Southeast 178 205 2,000 -197 Descending Seattle Center
Thu 09:14:16 PM 47.7042 -122.4511 239° Southwest 179 206 2,000 -197 Level Seattle Center
Thu 09:15:16 PM 47.6625 -122.4181 152° Southeast 172 198 1,800 -198 Descending Seattle Center
Thu 09:16:17 PM 47.6200 -122.3806 149° Southeast 176 203 1,600 -347 Descending Seattle Center
Thu 09:17:17 PM 47.5819 -122.3475 150° Southeast 161 185 1,100 -492 Descending Seattle Center
Thu 09:17:18 PM 47.5825 -122.3472 19° North 160 184 1,100 -857 Level Seattle Center
Thu 09:18:13 PM 47.5489 -122.3200 151° Southeast 154 177 300 -800 Descending Seattle Center
Thu 09:18:18 PM 47.5483 -122.3186 121° Southeast 149 171 300  Level Seattle Center

Login

Don't have an account? Register now (free) for customized features, flight alerts, and more!